ITY45 EDDF-LICJ
Flight info
| Callsign | ITY45 |
|---|---|
| Flight time | 1h 49m |
| Altitude | 37000 |
| Route | ANEKI2L/18 ANEKI Y163 NATOR DCT TRA DCT RIPUS DCT GERSA DCT SOSON DCT ODINA DCT ELB DCT VELAD DCT TINTO DCT POKAV DCT BETOT DCT RUVIP DCT RONAB DCT GIANO |
| Aircraft | A319/M-SDE3FGHIRWY/LB1 |
Departure
| Time | 2026-04-15 11:20 |
|---|---|
| Airport | Frankfurt Main Airport (EDDF) |
Arrival
| Time | 2026-04-15 13:10 |
|---|---|
| Airport | Falcone–Borsellino Airport (LICJ) |
| Time | Latitude | Longitude | Altitude | Speed | Heading |
|---|---|---|---|---|---|
| 2026-04-15 10:36 | 50.04541 | 8.56224 | 356 ft | 0 kts | 40° |
| 2026-04-15 11:04 | 50.04536 | 8.56217 | 362 ft | 4 kts | 37° |
| 2026-04-15 11:04 | 50.04513 | 8.56200 | 359 ft | 3 kts | 10° |
| 2026-04-15 11:04 | 50.04493 | 8.56198 | 356 ft | 4 kts | 322° |
| 2026-04-15 11:04 | 50.04482 | 8.56229 | 359 ft | 4 kts | 265° |
| 2026-04-15 11:05 | 50.04487 | 8.56259 | 360 ft | 4 kts | 250° |
| 2026-04-15 11:05 | 50.04496 | 8.56299 | 357 ft | 4 kts | 250° |
| 2026-04-15 11:05 | 50.04505 | 8.56338 | 363 ft | 4 kts | 250° |
| 2026-04-15 11:05 | 50.04514 | 8.56374 | 363 ft | 2 kts | 250° |
| 2026-04-15 11:06 | 50.04514 | 8.56376 | 363 ft | 0 kts | 250° |
| 2026-04-15 11:12 | 50.04514 | 8.56375 | 363 ft | 0 kts | 250° |
| 2026-04-15 11:12 | 50.04509 | 8.56352 | 356 ft | 5 kts | 250° |
| 2026-04-15 11:12 | 50.04491 | 8.56276 | 356 ft | 10 kts | 250° |
| 2026-04-15 11:13 | 50.04467 | 8.56176 | 359 ft | 10 kts | 250° |
| 2026-04-15 11:13 | 50.04442 | 8.56072 | 356 ft | 10 kts | 249° |
| 2026-04-15 11:13 | 50.04387 | 8.56028 | 356 ft | 10 kts | 164° |
| 2026-04-15 11:13 | 50.04318 | 8.56070 | 355 ft | 11 kts | 159° |
| 2026-04-15 11:14 | 50.04293 | 8.56175 | 355 ft | 12 kts | 83° |
| 2026-04-15 11:14 | 50.04231 | 8.56246 | 358 ft | 13 kts | 160° |
| 2026-04-15 11:14 | 50.04147 | 8.56285 | 361 ft | 12 kts | 185° |
| 2026-04-15 11:14 | 50.04101 | 8.56169 | 353 ft | 14 kts | 250° |
| 2026-04-15 11:15 | 50.04067 | 8.56027 | 356 ft | 15 kts | 250° |
| 2026-04-15 11:15 | 50.04031 | 8.55874 | 353 ft | 16 kts | 250° |
| 2026-04-15 11:15 | 50.03992 | 8.55712 | 353 ft | 17 kts | 249° |
| 2026-04-15 11:15 | 50.03950 | 8.55540 | 352 ft | 17 kts | 249° |
| 2026-04-15 11:16 | 50.03909 | 8.55368 | 349 ft | 17 kts | 250° |
| 2026-04-15 11:16 | 50.03868 | 8.55192 | 350 ft | 18 kts | 250° |
| 2026-04-15 11:16 | 50.03824 | 8.55010 | 350 ft | 18 kts | 250° |
| 2026-04-15 11:16 | 50.03778 | 8.54818 | 350 ft | 19 kts | 249° |
| 2026-04-15 11:17 | 50.03729 | 8.54616 | 352 ft | 21 kts | 249° |
| 2026-04-15 11:17 | 50.03677 | 8.54396 | 351 ft | 23 kts | 250° |
| 2026-04-15 11:17 | 50.03622 | 8.54166 | 342 ft | 23 kts | 249° |
| 2026-04-15 11:17 | 50.03566 | 8.53931 | 341 ft | 24 kts | 249° |
| 2026-04-15 11:18 | 50.03508 | 8.53688 | 336 ft | 24 kts | 250° |
| 2026-04-15 11:18 | 50.03448 | 8.53438 | 334 ft | 25 kts | 249° |
| 2026-04-15 11:18 | 50.03387 | 8.53183 | 334 ft | 26 kts | 249° |
| 2026-04-15 11:18 | 50.03324 | 8.52919 | 334 ft | 26 kts | 250° |
| 2026-04-15 11:19 | 50.03279 | 8.52732 | 333 ft | 11 kts | 250° |
| 2026-04-15 11:19 | 50.03266 | 8.52622 | 335 ft | 10 kts | 265° |
| 2026-04-15 11:19 | 50.03208 | 8.52594 | 335 ft | 11 kts | 179° |
| 2026-04-15 11:19 | 50.02929 | 8.52596 | 335 ft | 83 kts | 179° |
| 2026-04-15 11:20 | 50.02063 | 8.52609 | 336 ft | 161 kts | 179° |
| 2026-04-15 11:20 | 50.00795 | 8.52646 | 577 ft | 201 kts | 178° |
| 2026-04-15 11:20 | 49.99288 | 8.52680 | 1171 ft | 222 kts | 178° |
| 2026-04-15 11:20 | 49.97733 | 8.52755 | 2319 ft | 224 kts | 177° |
| 2026-04-15 11:21 | 49.96159 | 8.52858 | 3380 ft | 233 kts | 176° |
| 2026-04-15 11:21 | 49.94480 | 8.52976 | 4348 ft | 236 kts | 176° |
| 2026-04-15 11:21 | 49.92858 | 8.53089 | 5760 ft | 231 kts | 176° |
| 2026-04-15 11:21 | 49.91247 | 8.53207 | 6933 ft | 233 kts | 178° |
| 2026-04-15 11:22 | 49.89610 | 8.53329 | 7967 ft | 238 kts | 178° |
| 2026-04-15 11:22 | 49.87943 | 8.53452 | 8997 ft | 243 kts | 178° |
| 2026-04-15 11:22 | 49.86235 | 8.53574 | 9973 ft | 252 kts | 178° |
| 2026-04-15 11:22 | 49.84397 | 8.53702 | 10487 ft | 276 kts | 178° |
| 2026-04-15 11:23 | 49.82446 | 8.53839 | 11245 ft | 288 kts | 178° |
| 2026-04-15 11:23 | 49.80422 | 8.53980 | 12201 ft | 294 kts | 178° |
| 2026-04-15 11:23 | 49.78356 | 8.54117 | 13195 ft | 300 kts | 180° |
| 2026-04-15 11:23 | 49.76261 | 8.53905 | 14170 ft | 304 kts | 186° |
| 2026-04-15 11:24 | 49.74133 | 8.53624 | 15032 ft | 309 kts | 186° |
| 2026-04-15 11:24 | 49.71975 | 8.53337 | 15874 ft | 314 kts | 186° |
| 2026-04-15 11:24 | 49.69788 | 8.53047 | 16675 ft | 318 kts | 186° |
| 2026-04-15 11:24 | 49.67574 | 8.52754 | 17437 ft | 322 kts | 186° |
| 2026-04-15 11:25 | 49.65331 | 8.52457 | 18165 ft | 326 kts | 186° |
| 2026-04-15 11:25 | 49.63076 | 8.52159 | 18955 ft | 323 kts | 185° |
| 2026-04-15 11:25 | 49.60836 | 8.51862 | 19662 ft | 324 kts | 186° |
| 2026-04-15 11:25 | 49.58585 | 8.51561 | 20291 ft | 326 kts | 186° |
| 2026-04-15 11:26 | 49.56310 | 8.51255 | 20894 ft | 330 kts | 186° |
| 2026-04-15 11:26 | 49.54015 | 8.50950 | 21488 ft | 333 kts | 186° |
| 2026-04-15 11:26 | 49.51692 | 8.50645 | 22076 ft | 336 kts | 186° |
| 2026-04-15 11:26 | 49.49351 | 8.50338 | 22658 ft | 340 kts | 186° |
| 2026-04-15 11:27 | 49.46981 | 8.50030 | 23231 ft | 343 kts | 186° |
| 2026-04-15 11:27 | 49.44590 | 8.49720 | 23795 ft | 347 kts | 186° |
| 2026-04-15 11:27 | 49.42173 | 8.49405 | 24241 ft | 351 kts | 186° |
| 2026-04-15 11:27 | 49.39728 | 8.49086 | 24673 ft | 355 kts | 186° |
| 2026-04-15 11:28 | 49.37252 | 8.48766 | 25111 ft | 359 kts | 186° |
| 2026-04-15 11:28 | 49.34754 | 8.48444 | 25542 ft | 362 kts | 186° |
| 2026-04-15 11:28 | 49.32226 | 8.48113 | 25969 ft | 366 kts | 186° |
| 2026-04-15 11:28 | 49.29676 | 8.47779 | 26390 ft | 370 kts | 186° |
| 2026-04-15 11:29 | 49.27098 | 8.47445 | 26809 ft | 374 kts | 186° |
| 2026-04-15 11:29 | 49.24492 | 8.47109 | 27225 ft | 377 kts | 186° |
| 2026-04-15 11:29 | 49.21865 | 8.46769 | 27641 ft | 381 kts | 187° |
| 2026-04-15 11:29 | 49.19208 | 8.46421 | 28021 ft | 385 kts | 187° |
| 2026-04-15 11:30 | 49.16522 | 8.46071 | 28416 ft | 389 kts | 187° |
| 2026-04-15 11:30 | 49.13811 | 8.45717 | 28819 ft | 393 kts | 187° |
| 2026-04-15 11:30 | 49.11108 | 8.45362 | 29214 ft | 397 kts | 187° |
| 2026-04-15 11:30 | 49.08349 | 8.44998 | 29611 ft | 400 kts | 187° |
| 2026-04-15 11:31 | 49.05582 | 8.44453 | 30006 ft | 402 kts | 194° |
| 2026-04-15 11:31 | 49.02847 | 8.43521 | 30379 ft | 405 kts | 195° |
| 2026-04-15 11:31 | 49.00090 | 8.42559 | 30720 ft | 408 kts | 195° |
| 2026-04-15 11:31 | 48.97315 | 8.41591 | 31054 ft | 411 kts | 195° |
| 2026-04-15 11:32 | 48.94518 | 8.40616 | 31382 ft | 414 kts | 195° |
| 2026-04-15 11:32 | 48.91703 | 8.39633 | 31722 ft | 417 kts | 195° |
| 2026-04-15 11:32 | 48.88875 | 8.38652 | 32139 ft | 417 kts | 195° |
| 2026-04-15 11:32 | 48.86047 | 8.37680 | 32576 ft | 417 kts | 195° |
| 2026-04-15 11:33 | 48.83219 | 8.36705 | 33006 ft | 417 kts | 195° |
| 2026-04-15 11:33 | 48.80394 | 8.35731 | 33424 ft | 417 kts | 195° |
| 2026-04-15 11:33 | 48.77569 | 8.34753 | 33812 ft | 417 kts | 195° |
| 2026-04-15 11:33 | 48.74744 | 8.33743 | 34147 ft | 418 kts | 196° |
| 2026-04-15 11:34 | 48.71899 | 8.32697 | 34349 ft | 422 kts | 196° |
| 2026-04-15 11:34 | 48.69038 | 8.31635 | 34572 ft | 425 kts | 196° |
| 2026-04-15 11:34 | 48.66159 | 8.30567 | 34813 ft | 427 kts | 196° |
| 2026-04-15 11:34 | 48.63263 | 8.29498 | 35067 ft | 429 kts | 196° |
| 2026-04-15 11:35 | 48.60359 | 8.28433 | 35315 ft | 431 kts | 196° |
| 2026-04-15 11:35 | 48.57436 | 8.27370 | 35545 ft | 433 kts | 196° |
| 2026-04-15 11:35 | 48.54504 | 8.26312 | 35777 ft | 435 kts | 195° |
| 2026-04-15 11:35 | 48.51538 | 8.25359 | 36004 ft | 437 kts | 190° |
| 2026-04-15 11:36 | 48.48499 | 8.24984 | 36225 ft | 441 kts | 181° |
| 2026-04-15 11:36 | 48.45429 | 8.25257 | 36435 ft | 443 kts | 172° |
| 2026-04-15 11:36 | 48.42385 | 8.25992 | 36664 ft | 445 kts | 171° |
| 2026-04-15 11:36 | 48.39324 | 8.26747 | 36857 ft | 446 kts | 171° |
| 2026-04-15 11:37 | 48.36255 | 8.27492 | 37060 ft | 448 kts | 171° |
| 2026-04-15 11:37 | 48.33170 | 8.28235 | 37209 ft | 451 kts | 171° |
| 2026-04-15 11:37 | 48.26889 | 8.29749 | 37232 ft | 464 kts | 171° |
| 2026-04-15 11:38 | 48.20432 | 8.31305 | 37228 ft | 476 kts | 171° |
| 2026-04-15 11:38 | 48.13810 | 8.32897 | 37229 ft | 488 kts | 171° |
| 2026-04-15 11:39 | 48.07134 | 8.34512 | 37225 ft | 479 kts | 171° |
| 2026-04-15 11:39 | 48.00585 | 8.36103 | 37228 ft | 475 kts | 171° |
| 2026-04-15 11:40 | 47.94066 | 8.37680 | 37231 ft | 474 kts | 171° |
| 2026-04-15 11:40 | 47.87544 | 8.39247 | 37233 ft | 475 kts | 170° |
| 2026-04-15 11:41 | 47.81027 | 8.40804 | 37232 ft | 474 kts | 170° |
| 2026-04-15 11:41 | 47.74509 | 8.42365 | 37236 ft | 474 kts | 170° |
| 2026-04-15 11:42 | 47.67982 | 8.43901 | 37251 ft | 475 kts | 171° |
| 2026-04-15 11:42 | 47.61408 | 8.45025 | 37243 ft | 476 kts | 174° |
| 2026-04-15 11:43 | 47.55920 | 8.45722 | 37241 ft | 476 kts | 175° |
| 2026-04-15 11:43 | 47.49311 | 8.46570 | 37243 ft | 477 kts | 174° |
| 2026-04-15 11:44 | 47.42708 | 8.47525 | 37241 ft | 477 kts | 173° |
| 2026-04-15 11:44 | 47.36100 | 8.48521 | 37247 ft | 477 kts | 173° |
| 2026-04-15 11:45 | 47.29490 | 8.49505 | 37224 ft | 477 kts | 173° |
| 2026-04-15 11:45 | 47.22883 | 8.50464 | 37221 ft | 477 kts | 174° |
| 2026-04-15 11:46 | 47.16268 | 8.51410 | 37228 ft | 477 kts | 173° |
| 2026-04-15 11:46 | 47.09654 | 8.52371 | 37226 ft | 478 kts | 173° |
| 2026-04-15 11:47 | 47.03039 | 8.53338 | 37208 ft | 478 kts | 173° |
| 2026-04-15 11:47 | 46.96424 | 8.54297 | 37186 ft | 478 kts | 173° |
| 2026-04-15 11:48 | 46.89803 | 8.55258 | 37184 ft | 479 kts | 173° |
| 2026-04-15 11:48 | 46.83215 | 8.56199 | 37184 ft | 478 kts | 173° |
| 2026-04-15 11:49 | 46.76581 | 8.57139 | 37203 ft | 479 kts | 173° |
| 2026-04-15 11:49 | 46.69957 | 8.58087 | 37192 ft | 479 kts | 173° |
| 2026-04-15 11:50 | 46.63321 | 8.59036 | 37179 ft | 479 kts | 173° |
| 2026-04-15 11:50 | 46.56676 | 8.59983 | 37155 ft | 480 kts | 173° |
| 2026-04-15 11:51 | 46.50032 | 8.60927 | 37157 ft | 480 kts | 173° |
| 2026-04-15 11:51 | 46.43383 | 8.61861 | 37162 ft | 480 kts | 173° |
| 2026-04-15 11:52 | 46.36722 | 8.62794 | 37173 ft | 481 kts | 173° |
| 2026-04-15 11:52 | 46.30067 | 8.63743 | 37174 ft | 480 kts | 173° |
| 2026-04-15 11:53 | 46.23413 | 8.64681 | 37178 ft | 481 kts | 173° |
| 2026-04-15 11:53 | 46.16750 | 8.65611 | 37176 ft | 481 kts | 172° |
| 2026-04-15 11:54 | 46.10130 | 8.66901 | 37179 ft | 479 kts | 162° |
| 2026-04-15 11:54 | 46.03890 | 8.70066 | 37153 ft | 475 kts | 156° |
| 2026-04-15 11:55 | 45.97706 | 8.73432 | 37173 ft | 475 kts | 155° |
| 2026-04-15 11:55 | 45.91511 | 8.76780 | 37160 ft | 476 kts | 155° |
| 2026-04-15 11:56 | 45.85312 | 8.80134 | 37156 ft | 476 kts | 155° |
| 2026-04-15 11:56 | 45.79114 | 8.83494 | 37153 ft | 476 kts | 155° |
| 2026-04-15 11:57 | 45.69802 | 8.88508 | 37173 ft | 477 kts | 155° |
| 2026-04-15 11:58 | 45.63594 | 8.91839 | 37169 ft | 477 kts | 155° |
| 2026-04-15 11:58 | 45.57382 | 8.95166 | 37172 ft | 477 kts | 155° |
| 2026-04-15 11:59 | 45.51213 | 8.98468 | 37198 ft | 477 kts | 155° |
| 2026-04-15 11:59 | 45.45004 | 9.01775 | 37194 ft | 477 kts | 155° |
| 2026-04-15 12:00 | 45.38790 | 9.05075 | 37183 ft | 476 kts | 155° |
| 2026-04-15 12:00 | 45.32589 | 9.08368 | 37179 ft | 476 kts | 155° |
| 2026-04-15 12:01 | 45.26385 | 9.11654 | 37181 ft | 476 kts | 155° |
| 2026-04-15 12:01 | 45.20182 | 9.14928 | 37170 ft | 475 kts | 155° |
| 2026-04-15 12:02 | 45.13981 | 9.18194 | 37168 ft | 475 kts | 155° |
| 2026-04-15 12:02 | 45.07778 | 9.21451 | 37164 ft | 475 kts | 155° |
| 2026-04-15 12:03 | 45.01582 | 9.24692 | 37187 ft | 475 kts | 155° |
| 2026-04-15 12:03 | 44.95385 | 9.27936 | 37180 ft | 474 kts | 155° |
| 2026-04-15 12:04 | 44.89203 | 9.31175 | 37161 ft | 474 kts | 155° |
| 2026-04-15 12:04 | 44.83017 | 9.34407 | 37154 ft | 474 kts | 155° |
| 2026-04-15 12:05 | 44.76835 | 9.37618 | 37153 ft | 474 kts | 155° |
| 2026-04-15 12:05 | 44.70642 | 9.40820 | 37148 ft | 474 kts | 155° |
| 2026-04-15 12:06 | 44.64458 | 9.44021 | 37141 ft | 473 kts | 155° |
| 2026-04-15 12:06 | 44.58273 | 9.47208 | 37166 ft | 474 kts | 156° |
| 2026-04-15 12:07 | 44.52089 | 9.50385 | 37152 ft | 473 kts | 156° |
| 2026-04-15 12:07 | 44.45914 | 9.53556 | 37147 ft | 473 kts | 156° |
| 2026-04-15 12:08 | 44.39738 | 9.56731 | 37135 ft | 472 kts | 156° |
| 2026-04-15 12:08 | 44.33571 | 9.59894 | 37111 ft | 473 kts | 156° |
| 2026-04-15 12:09 | 44.27373 | 9.63050 | 37066 ft | 475 kts | 156° |
| 2026-04-15 12:09 | 44.21155 | 9.66213 | 37057 ft | 476 kts | 156° |
| 2026-04-15 12:10 | 44.14918 | 9.69383 | 37060 ft | 477 kts | 156° |
| 2026-04-15 12:10 | 44.08675 | 9.72546 | 37054 ft | 478 kts | 156° |
| 2026-04-15 12:11 | 44.02426 | 9.75705 | 37053 ft | 478 kts | 156° |
| 2026-04-15 12:11 | 43.96172 | 9.78863 | 37068 ft | 478 kts | 156° |
| 2026-04-15 12:12 | 43.89921 | 9.82015 | 37076 ft | 478 kts | 157° |
| 2026-04-15 12:12 | 43.83665 | 9.85145 | 37097 ft | 478 kts | 157° |
| 2026-04-15 12:13 | 43.77420 | 9.88269 | 37102 ft | 476 kts | 157° |
| 2026-04-15 12:13 | 43.71200 | 9.91387 | 37098 ft | 475 kts | 157° |
| 2026-04-15 12:14 | 43.64990 | 9.94488 | 37093 ft | 474 kts | 157° |
| 2026-04-15 12:14 | 43.58789 | 9.97580 | 37094 ft | 474 kts | 158° |
| 2026-04-15 12:15 | 43.52592 | 10.00653 | 37083 ft | 473 kts | 158° |
| 2026-04-15 12:15 | 43.46404 | 10.03719 | 37082 ft | 472 kts | 157° |
| 2026-04-15 12:16 | 43.40222 | 10.06783 | 37075 ft | 472 kts | 157° |
| 2026-04-15 12:16 | 43.34082 | 10.09819 | 37078 ft | 472 kts | 158° |
| 2026-04-15 12:17 | 43.27903 | 10.12853 | 37077 ft | 471 kts | 158° |
| 2026-04-15 12:17 | 43.21729 | 10.15876 | 37057 ft | 471 kts | 158° |
| 2026-04-15 12:18 | 43.15560 | 10.18901 | 37071 ft | 471 kts | 158° |
| 2026-04-15 12:18 | 43.09401 | 10.21920 | 37078 ft | 469 kts | 158° |
| 2026-04-15 12:19 | 43.03275 | 10.24916 | 37072 ft | 466 kts | 158° |
| 2026-04-15 12:19 | 42.97174 | 10.27880 | 37058 ft | 464 kts | 158° |
| 2026-04-15 12:20 | 42.91095 | 10.30838 | 37058 ft | 463 kts | 158° |
| 2026-04-15 12:20 | 42.85034 | 10.33785 | 37054 ft | 462 kts | 158° |
| 2026-04-15 12:21 | 42.78973 | 10.36718 | 37047 ft | 462 kts | 158° |
| 2026-04-15 12:21 | 42.72917 | 10.39642 | 37054 ft | 462 kts | 158° |
| 2026-04-15 12:22 | 42.66935 | 10.42772 | 37037 ft | 460 kts | 155° |
| 2026-04-15 12:22 | 42.61023 | 10.46105 | 37033 ft | 460 kts | 155° |
| 2026-04-15 12:23 | 42.55109 | 10.49418 | 37030 ft | 460 kts | 155° |
| 2026-04-15 12:23 | 42.49175 | 10.52651 | 37037 ft | 460 kts | 156° |
| 2026-04-15 12:24 | 42.43236 | 10.55852 | 37037 ft | 459 kts | 156° |
| 2026-04-15 12:24 | 42.37306 | 10.59055 | 37037 ft | 458 kts | 156° |
| 2026-04-15 12:25 | 42.31391 | 10.62258 | 37039 ft | 457 kts | 156° |
| 2026-04-15 12:25 | 42.25494 | 10.65445 | 37035 ft | 456 kts | 156° |
| 2026-04-15 12:26 | 42.19598 | 10.68611 | 37029 ft | 456 kts | 156° |
| 2026-04-15 12:26 | 42.13744 | 10.71754 | 37027 ft | 455 kts | 156° |
| 2026-04-15 12:27 | 42.07860 | 10.74912 | 37028 ft | 455 kts | 156° |
| 2026-04-15 12:27 | 42.01978 | 10.78057 | 37023 ft | 455 kts | 156° |
| 2026-04-15 12:28 | 41.96101 | 10.81192 | 37022 ft | 454 kts | 156° |
| 2026-04-15 12:28 | 41.90229 | 10.84333 | 37017 ft | 454 kts | 156° |
| 2026-04-15 12:29 | 41.85309 | 10.86957 | 37012 ft | 454 kts | 156° |
| 2026-04-15 12:29 | 41.79439 | 10.90079 | 37014 ft | 454 kts | 156° |
| 2026-04-15 12:30 | 41.73566 | 10.93193 | 37012 ft | 454 kts | 156° |
| 2026-04-15 12:30 | 41.67735 | 10.96282 | 37011 ft | 454 kts | 156° |
| 2026-04-15 12:31 | 41.61858 | 10.99381 | 37005 ft | 454 kts | 156° |
| 2026-04-15 12:31 | 41.55971 | 11.02478 | 37001 ft | 455 kts | 156° |
| 2026-04-15 12:32 | 41.50087 | 11.05580 | 37003 ft | 455 kts | 156° |
| 2026-04-15 12:32 | 41.44196 | 11.08676 | 37010 ft | 455 kts | 156° |
| 2026-04-15 12:33 | 41.38297 | 11.11766 | 37001 ft | 456 kts | 156° |
| 2026-04-15 12:33 | 41.32393 | 11.14859 | 36997 ft | 456 kts | 156° |
| 2026-04-15 12:34 | 41.26485 | 11.17941 | 37004 ft | 456 kts | 156° |
| 2026-04-15 12:34 | 41.20570 | 11.21028 | 37005 ft | 457 kts | 156° |
| 2026-04-15 12:35 | 41.14649 | 11.24106 | 36986 ft | 457 kts | 156° |
| 2026-04-15 12:35 | 41.08716 | 11.27177 | 36994 ft | 458 kts | 156° |
| 2026-04-15 12:36 | 41.02780 | 11.30255 | 37013 ft | 458 kts | 156° |
| 2026-04-15 12:36 | 40.96852 | 11.33330 | 37024 ft | 457 kts | 156° |
| 2026-04-15 12:37 | 40.90926 | 11.36388 | 37009 ft | 457 kts | 156° |
| 2026-04-15 12:37 | 40.85008 | 11.39436 | 37003 ft | 456 kts | 156° |
| 2026-04-15 12:38 | 40.79088 | 11.42477 | 37009 ft | 456 kts | 156° |
| 2026-04-15 12:38 | 40.73176 | 11.45514 | 37001 ft | 456 kts | 156° |
| 2026-04-15 12:39 | 40.67253 | 11.48551 | 36985 ft | 457 kts | 156° |
| 2026-04-15 12:39 | 40.61322 | 11.51593 | 36979 ft | 458 kts | 156° |
| 2026-04-15 12:40 | 40.55380 | 11.54629 | 36980 ft | 458 kts | 157° |
| 2026-04-15 12:40 | 40.49442 | 11.57658 | 36975 ft | 458 kts | 156° |
| 2026-04-15 12:41 | 40.43535 | 11.60659 | 36975 ft | 458 kts | 157° |
| 2026-04-15 12:41 | 40.37589 | 11.63666 | 36977 ft | 458 kts | 156° |
| 2026-04-15 12:42 | 40.31647 | 11.66679 | 36984 ft | 458 kts | 156° |
| 2026-04-15 12:42 | 40.25697 | 11.69683 | 36976 ft | 458 kts | 158° |
| 2026-04-15 12:43 | 40.19742 | 11.72677 | 36966 ft | 459 kts | 156° |
| 2026-04-15 12:43 | 40.13786 | 11.75674 | 36964 ft | 459 kts | 156° |
| 2026-04-15 12:44 | 40.07828 | 11.78675 | 36965 ft | 459 kts | 156° |
| 2026-04-15 12:44 | 40.01867 | 11.81658 | 36958 ft | 459 kts | 156° |
| 2026-04-15 12:45 | 39.95903 | 11.84635 | 36962 ft | 459 kts | 157° |
| 2026-04-15 12:45 | 39.89947 | 11.87612 | 36964 ft | 458 kts | 157° |
| 2026-04-15 12:46 | 39.84017 | 11.90647 | 36960 ft | 458 kts | 155° |
| 2026-04-15 12:46 | 39.78177 | 11.93950 | 36947 ft | 458 kts | 154° |
| 2026-04-15 12:47 | 39.72361 | 11.97337 | 36940 ft | 458 kts | 154° |
| 2026-04-15 12:47 | 39.66526 | 12.00661 | 36930 ft | 458 kts | 154° |
| 2026-04-15 12:48 | 39.60659 | 12.03932 | 36945 ft | 458 kts | 155° |
| 2026-04-15 12:48 | 39.54861 | 12.07148 | 36929 ft | 448 kts | 155° |
| 2026-04-15 12:49 | 39.49162 | 12.10335 | 36931 ft | 445 kts | 155° |
| 2026-04-15 12:49 | 39.43481 | 12.13513 | 36926 ft | 446 kts | 155° |
| 2026-04-15 12:49 | 39.40622 | 12.15107 | 36735 ft | 449 kts | 155° |
| 2026-04-15 12:50 | 39.37721 | 12.16725 | 35584 ft | 461 kts | 155° |
| 2026-04-15 12:50 | 39.34769 | 12.18359 | 34970 ft | 460 kts | 156° |
| 2026-04-15 12:50 | 39.31825 | 12.19954 | 34363 ft | 458 kts | 156° |
| 2026-04-15 12:50 | 39.28884 | 12.21517 | 33746 ft | 456 kts | 156° |
| 2026-04-15 12:51 | 39.25956 | 12.23090 | 33037 ft | 454 kts | 155° |
| 2026-04-15 12:51 | 39.23081 | 12.24694 | 32349 ft | 447 kts | 154° |
| 2026-04-15 12:51 | 39.20260 | 12.26309 | 31681 ft | 441 kts | 154° |
| 2026-04-15 12:51 | 39.17471 | 12.27906 | 30916 ft | 437 kts | 154° |
| 2026-04-15 12:52 | 39.14696 | 12.29477 | 30205 ft | 434 kts | 154° |
| 2026-04-15 12:52 | 39.11931 | 12.31022 | 29424 ft | 431 kts | 154° |
| 2026-04-15 12:52 | 39.09193 | 12.32533 | 28672 ft | 426 kts | 154° |
| 2026-04-15 12:52 | 39.06484 | 12.34015 | 27954 ft | 420 kts | 155° |
| 2026-04-15 12:53 | 39.03810 | 12.35477 | 27256 ft | 415 kts | 155° |
| 2026-04-15 12:53 | 39.01175 | 12.36923 | 26584 ft | 410 kts | 155° |
| 2026-04-15 12:53 | 38.98566 | 12.38358 | 25941 ft | 405 kts | 155° |
| 2026-04-15 12:53 | 38.95990 | 12.39772 | 25321 ft | 400 kts | 155° |
| 2026-04-15 12:54 | 38.93444 | 12.41165 | 24747 ft | 396 kts | 155° |
| 2026-04-15 12:54 | 38.90924 | 12.42547 | 24196 ft | 391 kts | 155° |
| 2026-04-15 12:54 | 38.88594 | 12.44298 | 23735 ft | 387 kts | 140° |
| 2026-04-15 12:54 | 38.86730 | 12.46745 | 23276 ft | 381 kts | 127° |
| 2026-04-15 12:55 | 38.85117 | 12.49431 | 22765 ft | 379 kts | 126° |
| 2026-04-15 12:55 | 38.83534 | 12.52112 | 22285 ft | 376 kts | 126° |
| 2026-04-15 12:55 | 38.81975 | 12.54780 | 21826 ft | 372 kts | 125° |
| 2026-04-15 12:55 | 38.80436 | 12.57428 | 21359 ft | 369 kts | 125° |
| 2026-04-15 12:56 | 38.78908 | 12.60056 | 20898 ft | 366 kts | 125° |
| 2026-04-15 12:56 | 38.77391 | 12.62656 | 20434 ft | 363 kts | 126° |
| 2026-04-15 12:56 | 38.75881 | 12.65232 | 19982 ft | 360 kts | 126° |
| 2026-04-15 12:56 | 38.74382 | 12.67784 | 19535 ft | 357 kts | 126° |
| 2026-04-15 12:57 | 38.72896 | 12.70315 | 19101 ft | 354 kts | 126° |
| 2026-04-15 12:57 | 38.71426 | 12.72824 | 18672 ft | 351 kts | 126° |
| 2026-04-15 12:57 | 38.69967 | 12.75315 | 18253 ft | 348 kts | 126° |
| 2026-04-15 12:57 | 38.68536 | 12.77753 | 17801 ft | 345 kts | 126° |
| 2026-04-15 12:58 | 38.67085 | 12.80220 | 17434 ft | 339 kts | 127° |
| 2026-04-15 12:58 | 38.65690 | 12.82582 | 17002 ft | 336 kts | 127° |
| 2026-04-15 12:58 | 38.64267 | 12.84986 | 16551 ft | 333 kts | 127° |
| 2026-04-15 12:58 | 38.62870 | 12.87350 | 16009 ft | 335 kts | 127° |
| 2026-04-15 12:59 | 38.60065 | 12.92096 | 15098 ft | 332 kts | 127° |
| 2026-04-15 12:59 | 38.58693 | 12.94417 | 14725 ft | 329 kts | 127° |
| 2026-04-15 12:59 | 38.57312 | 12.96748 | 14289 ft | 328 kts | 127° |
| 2026-04-15 13:00 | 38.55934 | 12.99074 | 13864 ft | 327 kts | 127° |
| 2026-04-15 13:00 | 38.54567 | 13.01380 | 13472 ft | 324 kts | 127° |
| 2026-04-15 13:00 | 38.53208 | 13.03664 | 13035 ft | 322 kts | 127° |
| 2026-04-15 13:00 | 38.51859 | 13.05929 | 12592 ft | 319 kts | 127° |
| 2026-04-15 13:01 | 38.50599 | 13.08046 | 12179 ft | 317 kts | 127° |
| 2026-04-15 13:01 | 38.49270 | 13.10285 | 11662 ft | 317 kts | 127° |
| 2026-04-15 13:01 | 38.47923 | 13.12556 | 10898 ft | 322 kts | 127° |
| 2026-04-15 13:01 | 38.46589 | 13.14800 | 10404 ft | 312 kts | 128° |
| 2026-04-15 13:02 | 38.45298 | 13.16965 | 9923 ft | 301 kts | 128° |
| 2026-04-15 13:02 | 38.44051 | 13.19053 | 9410 ft | 291 kts | 128° |
| 2026-04-15 13:02 | 38.42842 | 13.21082 | 8877 ft | 283 kts | 128° |
| 2026-04-15 13:02 | 38.41668 | 13.23051 | 8369 ft | 275 kts | 128° |
| 2026-04-15 13:03 | 38.40524 | 13.24970 | 7859 ft | 268 kts | 128° |
| 2026-04-15 13:03 | 38.39408 | 13.26838 | 7360 ft | 262 kts | 128° |
| 2026-04-15 13:03 | 38.38317 | 13.28663 | 6867 ft | 256 kts | 128° |
| 2026-04-15 13:03 | 38.37249 | 13.30445 | 6385 ft | 250 kts | 129° |
| 2026-04-15 13:04 | 38.35991 | 13.31924 | 5872 ft | 244 kts | 148° |
| 2026-04-15 13:04 | 38.34452 | 13.32757 | 5358 ft | 239 kts | 166° |
| 2026-04-15 13:04 | 38.32844 | 13.33243 | 4859 ft | 236 kts | 167° |
| 2026-04-15 13:04 | 38.31258 | 13.33728 | 4347 ft | 233 kts | 167° |
| 2026-04-15 13:05 | 38.29672 | 13.34216 | 3844 ft | 237 kts | 167° |
| 2026-04-15 13:05 | 38.28047 | 13.34571 | 3518 ft | 233 kts | 182° |
| 2026-04-15 13:05 | 38.26575 | 13.34021 | 3490 ft | 221 kts | 211° |
| 2026-04-15 13:05 | 38.25467 | 13.32598 | 3426 ft | 229 kts | 239° |
| 2026-04-15 13:06 | 38.24813 | 13.30749 | 3191 ft | 229 kts | 247° |
| 2026-04-15 13:06 | 38.24206 | 13.28888 | 2902 ft | 227 kts | 247° |
| 2026-04-15 13:06 | 38.23607 | 13.27079 | 2605 ft | 222 kts | 247° |
| 2026-04-15 13:06 | 38.23019 | 13.25317 | 2323 ft | 211 kts | 247° |
| 2026-04-15 13:07 | 38.22457 | 13.23639 | 2065 ft | 200 kts | 247° |
| 2026-04-15 13:07 | 38.21929 | 13.22061 | 1785 ft | 189 kts | 248° |
| 2026-04-15 13:07 | 38.21435 | 13.20587 | 1533 ft | 174 kts | 248° |
| 2026-04-15 13:07 | 38.20980 | 13.19230 | 1316 ft | 161 kts | 248° |
| 2026-04-15 13:08 | 38.20555 | 13.17960 | 1102 ft | 152 kts | 247° |
| 2026-04-15 13:08 | 38.20152 | 13.16758 | 908 ft | 144 kts | 247° |
| 2026-04-15 13:08 | 38.19768 | 13.15614 | 715 ft | 138 kts | 248° |
| 2026-04-15 13:08 | 38.19390 | 13.14497 | 559 ft | 137 kts | 248° |
| 2026-04-15 13:09 | 38.19010 | 13.13382 | 375 ft | 137 kts | 246° |
| 2026-04-15 13:09 | 38.18634 | 13.12250 | 196 ft | 140 kts | 246° |
| 2026-04-15 13:09 | 38.18268 | 13.11135 | 83 ft | 130 kts | 246° |
| 2026-04-15 13:09 | 38.17954 | 13.10204 | 60 ft | 97 kts | 247° |
| 2026-04-15 13:10 | 38.17735 | 13.09550 | 67 ft | 67 kts | 247° |
| 2026-04-15 13:10 | 38.17589 | 13.09117 | 70 ft | 40 kts | 246° |
| 2026-04-15 13:10 | 38.17505 | 13.08865 | 66 ft | 24 kts | 248° |
| 2026-04-15 13:10 | 38.17515 | 13.08753 | 67 ft | 13 kts | 345° |
| 2026-04-15 13:11 | 38.17593 | 13.08815 | 62 ft | 14 kts | 37° |
| 2026-04-15 13:11 | 38.17668 | 13.08888 | 63 ft | 14 kts | 37° |
| 2026-04-15 13:11 | 38.17742 | 13.08964 | 62 ft | 13 kts | 50° |
| 2026-04-15 13:11 | 38.17778 | 13.09066 | 64 ft | 10 kts | 67° |
| 2026-04-15 13:12 | 38.17781 | 13.09076 | 67 ft | 0 kts | 68° |
| 2026-04-15 13:12 | 38.17781 | 13.09077 | 67 ft | 0 kts | 68° |
| 2026-04-15 13:13 | 38.17783 | 13.09083 | 67 ft | 1 kts | 68° |
| 2026-04-15 13:13 | 38.17797 | 13.09126 | 67 ft | 8 kts | 68° |
| 2026-04-15 13:13 | 38.17812 | 13.09172 | 68 ft | 3 kts | 68° |
| 2026-04-15 13:13 | 38.17822 | 13.09204 | 68 ft | 6 kts | 66° |
| 2026-04-15 13:14 | 38.17853 | 13.09294 | 70 ft | 16 kts | 67° |
| 2026-04-15 13:14 | 38.17911 | 13.09468 | 64 ft | 23 kts | 67° |
| 2026-04-15 13:14 | 38.17974 | 13.09661 | 66 ft | 24 kts | 68° |
| 2026-04-15 13:14 | 38.18041 | 13.09853 | 63 ft | 24 kts | 65° |
| 2026-04-15 13:15 | 38.18106 | 13.10046 | 60 ft | 24 kts | 67° |
| 2026-04-15 13:15 | 38.18172 | 13.10242 | 65 ft | 24 kts | 67° |
| 2026-04-15 13:15 | 38.18238 | 13.10377 | 66 ft | 16 kts | 18° |
| 2026-04-15 13:15 | 38.18296 | 13.10382 | 60 ft | 7 kts | 63° |
| 2026-04-15 13:16 | 38.18318 | 13.10440 | 64 ft | 8 kts | 64° |
| 2026-04-15 13:16 | 38.18353 | 13.10486 | 65 ft | 8 kts | 19° |
| 2026-04-15 13:16 | 38.18407 | 13.10509 | 61 ft | 8 kts | 15° |
| 2026-04-15 13:16 | 38.18462 | 13.10484 | 63 ft | 9 kts | 335° |
| 2026-04-15 13:17 | 38.18491 | 13.10469 | 62 ft | 0 kts | 338° |
| 2026-04-15 13:17 | 38.18497 | 13.10465 | 65 ft | 0 kts | 337° |